sensor_id;sensor_type;location;lat;lon;timestamp;temperature;humidity
15203;DHT22;7702;51.046;5.184;2023-01-23T00:01:49;1.20;99.90
15203;DHT22;7702;51.046;5.184;2023-01-23T00:04:15;1.30;99.90
15203;DHT22;7702;51.046;5.184;2023-01-23T00:06:42;1.30;99.90
15203;DHT22;7702;51.046;5.184;2023-01-23T00:09:08;1.20;99.90
15203;DHT22;7702;51.046;5.184;2023-01-23T00:11:34;1.30;99.90
15203;DHT22;7702;51.046;5.184;2023-01-23T00:14:00;1.20;99.90
15203;DHT22;7702;51.046;5.184;2023-01-23T00:16:30;1.20;99.90
15203;DHT22;7702;51.046;5.184;2023-01-23T00:18:57;1.20;99.90
15203;DHT22;7702;51.046;5.184;2023-01-23T00:21:27;1.10;99.90
15203;DHT22;7702;51.046;5.184;2023-01-23T00:23:55;1.20;99.90
15203;DHT22;7702;51.046;5.184;2023-01-23T00:26:23;1.30;99.90
15203;DHT22;7702;51.046;5.184;2023-01-23T00:28:49;1.30;99.90
15203;DHT22;7702;51.046;5.184;2023-01-23T00:31:24;1.30;99.90
15203;DHT22;7702;51.046;5.184;2023-01-23T00:33:53;1.30;99.90
15203;DHT22;7702;51.046;5.184;2023-01-23T00:36:19;1.30;99.90
15203;DHT22;7702;51.046;5.184;2023-01-23T00:38:45;1.30;99.90
15203;DHT22;7702;51.046;5.184;2023-01-23T00:41:11;1.30;99.90
15203;DHT22;7702;51.046;5.184;2023-01-23T00:43:37;1.30;99.90
15203;DHT22;7702;51.046;5.184;2023-01-23T00:46:03;1.30;99.90
15203;DHT22;7702;51.046;5.184;2023-01-23T00:48:29;1.30;99.90
15203;DHT22;7702;51.046;5.184;2023-01-23T00:50:55;1.30;99.90
15203;DHT22;7702;51.046;5.184;2023-01-23T00:53:21;1.20;99.90
15203;DHT22;7702;51.046;5.184;2023-01-23T00:55:47;1.20;99.90
15203;DHT22;7702;51.046;5.184;2023-01-23T00:58:12;1.20;99.90
15203;DHT22;7702;51.046;5.184;2023-01-23T01:00:39;1.30;99.90
15203;DHT22;7702;51.046;5.184;2023-01-23T01:03:05;1.30;99.90
15203;DHT22;7702;51.046;5.184;2023-01-23T01:05:32;1.30;99.90
15203;DHT22;7702;51.046;5.184;2023-01-23T01:07:58;1.30;99.90
15203;DHT22;7702;51.046;5.184;2023-01-23T01:10:23;1.30;99.90
15203;DHT22;7702;51.046;5.184;2023-01-23T01:12:54;1.30;99.90
15203;DHT22;7702;51.046;5.184;2023-01-23T01:15:20;1.30;99.90
15203;DHT22;7702;51.046;5.184;2023-01-23T01:17:46;1.30;99.90
15203;DHT22;7702;51.046;5.184;2023-01-23T01:20:13;1.30;99.90
15203;DHT22;7702;51.046;5.184;2023-01-23T01:22:38;1.30;99.90
15203;DHT22;7702;51.046;5.184;2023-01-23T01:25:05;1.30;99.90
15203;DHT22;7702;51.046;5.184;2023-01-23T01:27:30;1.30;99.90
15203;DHT22;7702;51.046;5.184;2023-01-23T01:29:56;1.30;99.90
15203;DHT22;7702;51.046;5.184;2023-01-23T01:32:22;1.30;99.90
15203;DHT22;7702;51.046;5.184;2023-01-23T01:34:49;1.40;99.90
15203;DHT22;7702;51.046;5.184;2023-01-23T01:37:15;1.40;99.90
15203;DHT22;7702;51.046;5.184;2023-01-23T01:39:41;1.40;99.90
15203;DHT22;7702;51.046;5.184;2023-01-23T01:42:06;1.40;99.90
15203;DHT22;7702;51.046;5.184;2023-01-23T01:47:54;1.50;99.90
15203;DHT22;7702;51.046;5.184;2023-01-23T01:50:20;1.50;99.90
15203;DHT22;7702;51.046;5.184;2023-01-23T01:52:46;1.50;99.90
15203;DHT22;7702;51.046;5.184;2023-01-23T01:55:12;1.40;99.90
15203;DHT22;7702;51.046;5.184;2023-01-23T01:57:42;1.40;99.90
15203;DHT22;7702;51.046;5.184;2023-01-23T02:00:14;1.40;99.90
15203;DHT22;7702;51.046;5.184;2023-01-23T02:02:47;1.50;99.90
15203;DHT22;7702;51.046;5.184;2023-01-23T02:05:28;1.50;99.90
15203;DHT22;7702;51.046;5.184;2023-01-23T02:08:22;1.40;99.90
15203;DHT22;7702;51.046;5.184;2023-01-23T02:10:50;1.40;99.90
15203;DHT22;7702;51.046;5.184;2023-01-23T02:13:27;1.40;99.90
15203;DHT22;7702;51.046;5.184;2023-01-23T02:15:57;1.40;99.90
15203;DHT22;7702;51.046;5.184;2023-01-23T02:18:24;1.40;99.90
15203;DHT22;7702;51.046;5.184;2023-01-23T02:20:52;1.50;99.90
15203;DHT22;7702;51.046;5.184;2023-01-23T02:23:28;1.40;99.90
15203;DHT22;7702;51.046;5.184;2023-01-23T02:26:05;1.40;99.90
15203;DHT22;7702;51.046;5.184;2023-01-23T02:28:41;1.40;99.90
15203;DHT22;7702;51.046;5.184;2023-01-23T02:31:08;1.50;99.90
15203;DHT22;7702;51.046;5.184;2023-01-23T02:36:01;1.50;99.90
15203;DHT22;7702;51.046;5.184;2023-01-23T02:38:42;1.30;99.90
15203;DHT22;7702;51.046;5.184;2023-01-23T02:41:11;1.40;99.90
15203;DHT22;7702;51.046;5.184;2023-01-23T02:43:38;1.50;99.90
15203;DHT22;7702;51.046;5.184;2023-01-23T02:46:06;1.50;99.90
15203;DHT22;7702;51.046;5.184;2023-01-23T02:48:33;1.40;99.90
15203;DHT22;7702;51.046;5.184;2023-01-23T02:50:59;1.40;99.90
15203;DHT22;7702;51.046;5.184;2023-01-23T02:53:24;1.30;99.90
15203;DHT22;7702;51.046;5.184;2023-01-23T02:55:51;1.40;99.90
15203;DHT22;7702;51.046;5.184;2023-01-23T02:58:16;1.40;99.90
15203;DHT22;7702;51.046;5.184;2023-01-23T03:01:01;1.40;99.90
15203;DHT22;7702;51.046;5.184;2023-01-23T03:03:27;1.40;99.90
15203;DHT22;7702;51.046;5.184;2023-01-23T03:05:55;1.40;99.90
15203;DHT22;7702;51.046;5.184;2023-01-23T03:08:22;1.40;99.90
15203;DHT22;7702;51.046;5.184;2023-01-23T03:10:48;1.40;99.90
15203;DHT22;7702;51.046;5.184;2023-01-23T03:13:13;1.50;99.90
15203;DHT22;7702;51.046;5.184;2023-01-23T03:15:39;1.50;99.90
15203;DHT22;7702;51.046;5.184;2023-01-23T03:18:07;1.50;99.90
15203;DHT22;7702;51.046;5.184;2023-01-23T03:20:40;1.50;99.90
15203;DHT22;7702;51.046;5.184;2023-01-23T03:23:07;1.50;99.90
15203;DHT22;7702;51.046;5.184;2023-01-23T03:25:32;1.50;99.90
15203;DHT22;7702;51.046;5.184;2023-01-23T03:27:58;1.50;99.90
15203;DHT22;7702;51.046;5.184;2023-01-23T03:30:24;1.50;99.90
15203;DHT22;7702;51.046;5.184;2023-01-23T03:32:51;1.50;99.90
15203;DHT22;7702;51.046;5.184;2023-01-23T03:35:17;1.60;99.90
15203;DHT22;7702;51.046;5.184;2023-01-23T03:37:48;1.60;99.90
15203;DHT22;7702;51.046;5.184;2023-01-23T03:40:22;1.50;99.90
15203;DHT22;7702;51.046;5.184;2023-01-23T03:43:06;1.50;99.90
15203;DHT22;7702;51.046;5.184;2023-01-23T03:45:32;1.50;99.90
15203;DHT22;7702;51.046;5.184;2023-01-23T03:47:58;1.50;99.90
15203;DHT22;7702;51.046;5.184;2023-01-23T03:50:24;1.50;99.90
15203;DHT22;7702;51.046;5.184;2023-01-23T03:52:50;1.50;99.90
15203;DHT22;7702;51.046;5.184;2023-01-23T03:55:16;1.50;99.90
15203;DHT22;7702;51.046;5.184;2023-01-23T03:57:41;1.60;99.90
15203;DHT22;7702;51.046;5.184;2023-01-23T04:00:08;1.60;99.90
15203;DHT22;7702;51.046;5.184;2023-01-23T04:02:34;1.60;99.90
15203;DHT22;7702;51.046;5.184;2023-01-23T04:05:00;1.60;99.90
15203;DHT22;7702;51.046;5.184;2023-01-23T04:07:26;1.50;99.90
15203;DHT22;7702;51.046;5.184;2023-01-23T04:09:51;1.50;99.90
15203;DHT22;7702;51.046;5.184;2023-01-23T04:12:17;1.50;99.90
15203;DHT22;7702;51.046;5.184;2023-01-23T04:14:43;1.50;99.90
15203;DHT22;7702;51.046;5.184;2023-01-23T04:17:09;1.50;99.90
15203;DHT22;7702;51.046;5.184;2023-01-23T04:19:35;1.40;99.90
15203;DHT22;7702;51.046;5.184;2023-01-23T04:22:00;1.40;99.90
15203;DHT22;7702;51.046;5.184;2023-01-23T04:24:26;1.40;99.90
15203;DHT22;7702;51.046;5.184;2023-01-23T04:26:52;1.50;99.90
15203;DHT22;7702;51.046;5.184;2023-01-23T04:29:18;1.50;99.90
15203;DHT22;7702;51.046;5.184;2023-01-23T04:31:45;1.50;99.90
15203;DHT22;7702;51.046;5.184;2023-01-23T04:34:11;1.50;99.90
15203;DHT22;7702;51.046;5.184;2023-01-23T04:36:36;1.50;99.90
15203;DHT22;7702;51.046;5.184;2023-01-23T04:39:02;1.50;99.90
15203;DHT22;7702;51.046;5.184;2023-01-23T04:41:31;1.50;99.90
15203;DHT22;7702;51.046;5.184;2023-01-23T04:43:57;1.50;99.90
15203;DHT22;7702;51.046;5.184;2023-01-23T04:46:42;1.50;99.90
15203;DHT22;7702;51.046;5.184;2023-01-23T04:49:08;1.50;99.90
15203;DHT22;7702;51.046;5.184;2023-01-23T04:51:34;1.50;99.90
15203;DHT22;7702;51.046;5.184;2023-01-23T04:54:01;1.50;99.90
15203;DHT22;7702;51.046;5.184;2023-01-23T04:56:26;1.50;99.90
15203;DHT22;7702;51.046;5.184;2023-01-23T04:58:52;1.50;99.90
15203;DHT22;7702;51.046;5.184;2023-01-23T05:01:18;1.50;99.90
15203;DHT22;7702;51.046;5.184;2023-01-23T05:03:48;1.50;99.90
15203;DHT22;7702;51.046;5.184;2023-01-23T05:06:14;1.60;99.90
15203;DHT22;7702;51.046;5.184;2023-01-23T05:08:39;1.60;99.90
15203;DHT22;7702;51.046;5.184;2023-01-23T05:11:05;1.60;99.90
15203;DHT22;7702;51.046;5.184;2023-01-23T05:13:31;1.60;99.90
15203;DHT22;7702;51.046;5.184;2023-01-23T05:15:57;1.60;99.90
15203;DHT22;7702;51.046;5.184;2023-01-23T05:18:22;1.60;99.90
15203;DHT22;7702;51.046;5.184;2023-01-23T05:20:48;1.60;99.90
15203;DHT22;7702;51.046;5.184;2023-01-23T05:23:14;1.60;99.90
15203;DHT22;7702;51.046;5.184;2023-01-23T05:25:39;1.50;99.90
15203;DHT22;7702;51.046;5.184;2023-01-23T05:28:05;1.50;99.90
15203;DHT22;7702;51.046;5.184;2023-01-23T05:30:31;1.60;99.90
15203;DHT22;7702;51.046;5.184;2023-01-23T05:32:56;1.50;99.90
15203;DHT22;7702;51.046;5.184;2023-01-23T05:35:22;1.50;99.90
15203;DHT22;7702;51.046;5.184;2023-01-23T05:37:49;1.50;99.90
15203;DHT22;7702;51.046;5.184;2023-01-23T05:40:16;1.50;99.90
15203;DHT22;7702;51.046;5.184;2023-01-23T05:42:42;1.60;99.90
15203;DHT22;7702;51.046;5.184;2023-01-23T05:45:08;1.60;99.90
15203;DHT22;7702;51.046;5.184;2023-01-23T05:47:34;1.60;99.90
15203;DHT22;7702;51.046;5.184;2023-01-23T05:49:59;1.60;99.90
15203;DHT22;7702;51.046;5.184;2023-01-23T05:52:26;1.70;99.90
15203;DHT22;7702;51.046;5.184;2023-01-23T05:54:51;1.70;99.90
15203;DHT22;7702;51.046;5.184;2023-01-23T05:57:17;1.60;99.90
15203;DHT22;7702;51.046;5.184;2023-01-23T05:59:43;1.60;99.90
15203;DHT22;7702;51.046;5.184;2023-01-23T06:02:09;1.60;99.90
15203;DHT22;7702;51.046;5.184;2023-01-23T06:04:35;1.60;99.90
15203;DHT22;7702;51.046;5.184;2023-01-23T06:07:01;1.60;99.90
15203;DHT22;7702;51.046;5.184;2023-01-23T06:09:26;1.60;99.90
15203;DHT22;7702;51.046;5.184;2023-01-23T06:11:52;1.60;99.90
15203;DHT22;7702;51.046;5.184;2023-01-23T06:14:18;1.60;99.90
15203;DHT22;7702;51.046;5.184;2023-01-23T06:16:43;1.60;99.90
15203;DHT22;7702;51.046;5.184;2023-01-23T06:19:09;1.60;99.90
15203;DHT22;7702;51.046;5.184;2023-01-23T06:27:59;1.60;99.90
15203;DHT22;7702;51.046;5.184;2023-01-23T06:30:25;1.60;99.90
15203;DHT22;7702;51.046;5.184;2023-01-23T06:32:51;1.60;99.90
15203;DHT22;7702;51.046;5.184;2023-01-23T06:35:17;1.60;99.90
15203;DHT22;7702;51.046;5.184;2023-01-23T06:37:43;1.60;99.90
15203;DHT22;7702;51.046;5.184;2023-01-23T06:40:09;1.70;99.90
15203;DHT22;7702;51.046;5.184;2023-01-23T06:42:38;1.70;99.90
15203;DHT22;7702;51.046;5.184;2023-01-23T06:45:05;1.70;99.90
15203;DHT22;7702;51.046;5.184;2023-01-23T06:47:31;1.70;99.90
15203;DHT22;7702;51.046;5.184;2023-01-23T06:49:56;1.70;99.90
15203;DHT22;7702;51.046;5.184;2023-01-23T06:52:22;1.70;99.90
15203;DHT22;7702;51.046;5.184;2023-01-23T06:54:47;1.70;99.90
15203;DHT22;7702;51.046;5.184;2023-01-23T06:57:13;1.70;99.90
15203;DHT22;7702;51.046;5.184;2023-01-23T06:59:39;1.70;99.90
15203;DHT22;7702;51.046;5.184;2023-01-23T07:02:05;1.70;99.90
15203;DHT22;7702;51.046;5.184;2023-01-23T07:04:31;1.70;99.90
15203;DHT22;7702;51.046;5.184;2023-01-23T07:06:57;1.70;99.90
15203;DHT22;7702;51.046;5.184;2023-01-23T07:09:23;1.70;99.90
15203;DHT22;7702;51.046;5.184;2023-01-23T07:11:49;1.70;99.90
15203;DHT22;7702;51.046;5.184;2023-01-23T07:14:14;1.70;99.90
15203;DHT22;7702;51.046;5.184;2023-01-23T07:16:40;1.80;99.90
15203;DHT22;7702;51.046;5.184;2023-01-23T07:19:06;1.70;99.90
15203;DHT22;7702;51.046;5.184;2023-01-23T07:21:32;1.80;99.90
15203;DHT22;7702;51.046;5.184;2023-01-23T07:23:58;1.70;99.90
15203;DHT22;7702;51.046;5.184;2023-01-23T07:26:23;1.80;99.90
15203;DHT22;7702;51.046;5.184;2023-01-23T07:28:49;1.70;99.90
15203;DHT22;7702;51.046;5.184;2023-01-23T07:31:15;1.80;99.90
15203;DHT22;7702;51.046;5.184;2023-01-23T07:33:41;1.80;99.90
15203;DHT22;7702;51.046;5.184;2023-01-23T07:36:07;1.90;99.90
15203;DHT22;7702;51.046;5.184;2023-01-23T07:38:33;1.90;99.90
15203;DHT22;7702;51.046;5.184;2023-01-23T07:40:59;2.00;99.90
15203;DHT22;7702;51.046;5.184;2023-01-23T07:43:25;1.90;99.90
15203;DHT22;7702;51.046;5.184;2023-01-23T07:45:51;1.90;99.90
15203;DHT22;7702;51.046;5.184;2023-01-23T07:48:17;1.90;99.90
15203;DHT22;7702;51.046;5.184;2023-01-23T07:50:43;1.90;99.90
15203;DHT22;7702;51.046;5.184;2023-01-23T07:53:09;1.90;99.90
15203;DHT22;7702;51.046;5.184;2023-01-23T07:55:37;1.90;99.90
15203;DHT22;7702;51.046;5.184;2023-01-23T07:58:03;1.90;99.90
15203;DHT22;7702;51.046;5.184;2023-01-23T08:00:29;1.90;99.90
15203;DHT22;7702;51.046;5.184;2023-01-23T08:02:55;2.00;99.90
15203;DHT22;7702;51.046;5.184;2023-01-23T08:05:21;2.00;99.90
15203;DHT22;7702;51.046;5.184;2023-01-23T08:07:47;2.00;99.90
15203;DHT22;7702;51.046;5.184;2023-01-23T08:10:12;2.00;99.90
15203;DHT22;7702;51.046;5.184;2023-01-23T08:12:38;2.00;99.90
15203;DHT22;7702;51.046;5.184;2023-01-23T08:15:04;2.10;99.90
15203;DHT22;7702;51.046;5.184;2023-01-23T08:17:30;2.10;99.90
15203;DHT22;7702;51.046;5.184;2023-01-23T08:19:56;2.10;99.90
15203;DHT22;7702;51.046;5.184;2023-01-23T08:22:22;2.10;99.90
15203;DHT22;7702;51.046;5.184;2023-01-23T08:24:47;2.10;99.90
15203;DHT22;7702;51.046;5.184;2023-01-23T08:27:13;2.10;99.90
15203;DHT22;7702;51.046;5.184;2023-01-23T08:29:39;2.20;99.90
15203;DHT22;7702;51.046;5.184;2023-01-23T08:32:05;2.20;99.90
15203;DHT22;7702;51.046;5.184;2023-01-23T08:34:31;2.20;99.90
15203;DHT22;7702;51.046;5.184;2023-01-23T08:36:56;2.30;99.90
15203;DHT22;7702;51.046;5.184;2023-01-23T08:39:22;2.30;99.90
15203;DHT22;7702;51.046;5.184;2023-01-23T08:41:49;2.20;99.90
15203;DHT22;7702;51.046;5.184;2023-01-23T08:44:15;2.30;99.90
15203;DHT22;7702;51.046;5.184;2023-01-23T08:46:41;2.30;99.90
15203;DHT22;7702;51.046;5.184;2023-01-23T08:49:07;2.20;99.90
15203;DHT22;7702;51.046;5.184;2023-01-23T08:51:34;2.30;99.90
15203;DHT22;7702;51.046;5.184;2023-01-23T08:54:00;2.30;99.90
15203;DHT22;7702;51.046;5.184;2023-01-23T08:56:25;2.30;99.90
15203;DHT22;7702;51.046;5.184;2023-01-23T08:58:51;2.30;99.90
15203;DHT22;7702;51.046;5.184;2023-01-23T09:01:19;2.20;99.90
15203;DHT22;7702;51.046;5.184;2023-01-23T09:03:46;2.30;99.90
15203;DHT22;7702;51.046;5.184;2023-01-23T09:06:12;2.40;99.90
15203;DHT22;7702;51.046;5.184;2023-01-23T09:08:38;2.50;99.90
15203;DHT22;7702;51.046;5.184;2023-01-23T09:11:07;2.50;99.90
15203;DHT22;7702;51.046;5.184;2023-01-23T09:13:33;2.30;99.90
15203;DHT22;7702;51.046;5.184;2023-01-23T09:15:59;2.30;99.90
15203;DHT22;7702;51.046;5.184;2023-01-23T09:18:25;2.30;99.90
15203;DHT22;7702;51.046;5.184;2023-01-23T09:20:52;2.40;99.90
15203;DHT22;7702;51.046;5.184;2023-01-23T09:23:18;2.60;99.90
15203;DHT22;7702;51.046;5.184;2023-01-23T09:25:44;2.70;99.90
15203;DHT22;7702;51.046;5.184;2023-01-23T09:28:10;2.70;99.90
15203;DHT22;7702;51.046;5.184;2023-01-23T09:30:36;2.60;99.90
15203;DHT22;7702;51.046;5.184;2023-01-23T09:33:03;2.70;99.90
15203;DHT22;7702;51.046;5.184;2023-01-23T09:35:28;2.70;99.90
15203;DHT22;7702;51.046;5.184;2023-01-23T09:37:54;2.80;99.90
15203;DHT22;7702;51.046;5.184;2023-01-23T09:40:35;2.80;99.90
15203;DHT22;7702;51.046;5.184;2023-01-23T09:48:42;3.00;99.90
15203;DHT22;7702;51.046;5.184;2023-01-23T09:53:52;3.00;99.90
15203;DHT22;7702;51.046;5.184;2023-01-23T09:56:35;3.10;99.90
15203;DHT22;7702;51.046;5.184;2023-01-23T09:59:32;3.20;99.90
15203;DHT22;7702;51.046;5.184;2023-01-23T10:01:59;3.30;99.90
15203;DHT22;7702;51.046;5.184;2023-01-23T10:04:25;3.20;99.90
15203;DHT22;7702;51.046;5.184;2023-01-23T10:09:28;3.30;99.90
15203;DHT22;7702;51.046;5.184;2023-01-23T10:15:06;3.40;99.90
15203;DHT22;7702;51.046;5.184;2023-01-23T10:22:49;3.50;99.90
15203;DHT22;7702;51.046;5.184;2023-01-23T10:25:24;3.50;99.90
15203;DHT22;7702;51.046;5.184;2023-01-23T10:27:54;3.50;99.90
15203;DHT22;7702;51.046;5.184;2023-01-23T10:30:30;3.40;99.90
15203;DHT22;7702;51.046;5.184;2023-01-23T10:33:10;3.40;99.90
15203;DHT22;7702;51.046;5.184;2023-01-23T10:36:20;3.40;99.90
15203;DHT22;7702;51.046;5.184;2023-01-23T10:41:21;3.30;99.90
15203;DHT22;7702;51.046;5.184;2023-01-23T10:43:52;3.20;99.90
15203;DHT22;7702;51.046;5.184;2023-01-23T10:48:53;3.30;99.90
15203;DHT22;7702;51.046;5.184;2023-01-23T10:56:38;3.60;99.90
15203;DHT22;7702;51.046;5.184;2023-01-23T10:59:22;3.50;99.90
15203;DHT22;7702;51.046;5.184;2023-01-23T11:04:30;3.50;99.90
15203;DHT22;7702;51.046;5.184;2023-01-23T11:07:05;3.40;99.90
15203;DHT22;7702;51.046;5.184;2023-01-23T11:09:31;3.40;99.90
15203;DHT22;7702;51.046;5.184;2023-01-23T11:11:59;3.60;99.90
15203;DHT22;7702;51.046;5.184;2023-01-23T11:14:25;3.70;99.90
15203;DHT22;7702;51.046;5.184;2023-01-23T11:17:00;3.50;99.90
15203;DHT22;7702;51.046;5.184;2023-01-23T11:19:29;3.70;99.90
15203;DHT22;7702;51.046;5.184;2023-01-23T11:22:01;3.70;99.90
15203;DHT22;7702;51.046;5.184;2023-01-23T11:32:41;4.00;99.90
15203;DHT22;7702;51.046;5.184;2023-01-23T11:35:17;4.00;99.90
15203;DHT22;7702;51.046;5.184;2023-01-23T11:37:44;4.10;99.90
15203;DHT22;7702;51.046;5.184;2023-01-23T11:40:18;4.00;99.90
15203;DHT22;7702;51.046;5.184;2023-01-23T11:42:45;3.90;99.90
15203;DHT22;7702;51.046;5.184;2023-01-23T11:50:51;3.90;99.90
15203;DHT22;7702;51.046;5.184;2023-01-23T11:56:36;4.00;99.90
15203;DHT22;7702;51.046;5.184;2023-01-23T11:59:26;4.10;99.90
15203;DHT22;7702;51.046;5.184;2023-01-23T12:05:31;4.10;99.90
15203;DHT22;7702;51.046;5.184;2023-01-23T12:08:45;4.20;99.90
15203;DHT22;7702;51.046;5.184;2023-01-23T12:11:16;4.20;99.90
15203;DHT22;7702;51.046;5.184;2023-01-23T12:21:44;4.00;99.90
15203;DHT22;7702;51.046;5.184;2023-01-23T12:26:54;4.10;99.90
15203;DHT22;7702;51.046;5.184;2023-01-23T12:29:30;4.30;99.90
15203;DHT22;7702;51.046;5.184;2023-01-23T12:40:12;4.30;99.90
15203;DHT22;7702;51.046;5.184;2023-01-23T12:45:21;4.30;99.90
15203;DHT22;7702;51.046;5.184;2023-01-23T12:48:09;4.30;99.90
15203;DHT22;7702;51.046;5.184;2023-01-23T12:50:54;4.30;99.90
15203;DHT22;7702;51.046;5.184;2023-01-23T12:53:21;4.30;99.90
15203;DHT22;7702;51.046;5.184;2023-01-23T12:56:11;4.10;99.90
15203;DHT22;7702;51.046;5.184;2023-01-23T12:58:43;4.20;99.90
15203;DHT22;7702;51.046;5.184;2023-01-23T13:04:19;4.20;99.90
15203;DHT22;7702;51.046;5.184;2023-01-23T13:14:45;4.40;99.90
15203;DHT22;7702;51.046;5.184;2023-01-23T13:23:31;4.60;99.90
15203;DHT22;7702;51.046;5.184;2023-01-23T13:28:48;4.50;99.90
15203;DHT22;7702;51.046;5.184;2023-01-23T13:34:00;4.70;99.90
15203;DHT22;7702;51.046;5.184;2023-01-23T13:36:31;4.70;99.90
15203;DHT22;7702;51.046;5.184;2023-01-23T13:41:30;4.30;99.90
15203;DHT22;7702;51.046;5.184;2023-01-23T13:52:18;3.80;99.90
15203;DHT22;7702;51.046;5.184;2023-01-23T13:55:15;3.70;99.90
15203;DHT22;7702;51.046;5.184;2023-01-23T13:58:03;3.60;99.90
15203;DHT22;7702;51.046;5.184;2023-01-23T14:00:30;3.60;99.90
15203;DHT22;7702;51.046;5.184;2023-01-23T14:03:31;3.60;99.90
15203;DHT22;7702;51.046;5.184;2023-01-23T14:06:17;3.50;99.90
15203;DHT22;7702;51.046;5.184;2023-01-23T14:09:01;3.40;99.90
15203;DHT22;7702;51.046;5.184;2023-01-23T14:11:35;3.40;99.90
15203;DHT22;7702;51.046;5.184;2023-01-23T14:14:04;3.40;99.90
15203;DHT22;7702;51.046;5.184;2023-01-23T14:16:49;3.30;99.90
15203;DHT22;7702;51.046;5.184;2023-01-23T14:21:58;3.50;99.90
15203;DHT22;7702;51.046;5.184;2023-01-23T14:24:48;3.60;99.90
15203;DHT22;7702;51.046;5.184;2023-01-23T14:27:34;3.50;99.90
15203;DHT22;7702;51.046;5.184;2023-01-23T14:32:39;3.50;99.90
15203;DHT22;7702;51.046;5.184;2023-01-23T14:35:25;3.60;99.90
15203;DHT22;7702;51.046;5.184;2023-01-23T14:37:53;3.50;99.90
15203;DHT22;7702;51.046;5.184;2023-01-23T14:40:21;3.40;99.90
15203;DHT22;7702;51.046;5.184;2023-01-23T14:43:06;3.40;99.90
15203;DHT22;7702;51.046;5.184;2023-01-23T14:45:33;3.30;99.90
15203;DHT22;7702;51.046;5.184;2023-01-23T14:48:01;3.20;99.90
15203;DHT22;7702;51.046;5.184;2023-01-23T14:50:29;3.20;99.90
15203;DHT22;7702;51.046;5.184;2023-01-23T14:53:03;3.20;99.90
15203;DHT22;7702;51.046;5.184;2023-01-23T14:55:30;3.20;99.90
15203;DHT22;7702;51.046;5.184;2023-01-23T14:57:58;3.30;99.90
15203;DHT22;7702;51.046;5.184;2023-01-23T15:00:25;3.30;99.90
15203;DHT22;7702;51.046;5.184;2023-01-23T15:02:52;3.10;99.90
15203;DHT22;7702;51.046;5.184;2023-01-23T15:05:26;3.20;99.90
15203;DHT22;7702;51.046;5.184;2023-01-23T15:07:54;3.10;99.90
15203;DHT22;7702;51.046;5.184;2023-01-23T15:10:23;3.00;99.90
15203;DHT22;7702;51.046;5.184;2023-01-23T15:12:51;3.00;99.90
15203;DHT22;7702;51.046;5.184;2023-01-23T15:15:19;3.00;99.90
15203;DHT22;7702;51.046;5.184;2023-01-23T15:17:46;3.00;99.90
15203;DHT22;7702;51.046;5.184;2023-01-23T15:20:37;3.00;99.90
15203;DHT22;7702;51.046;5.184;2023-01-23T15:25:44;3.00;99.90
15203;DHT22;7702;51.046;5.184;2023-01-23T15:28:30;3.00;99.90
15203;DHT22;7702;51.046;5.184;2023-01-23T15:30:56;2.90;99.90
15203;DHT22;7702;51.046;5.184;2023-01-23T15:33:30;2.90;99.90
15203;DHT22;7702;51.046;5.184;2023-01-23T15:36:07;2.90;99.90
15203;DHT22;7702;51.046;5.184;2023-01-23T15:38:36;3.00;99.90
15203;DHT22;7702;51.046;5.184;2023-01-23T15:41:07;3.00;99.90
15203;DHT22;7702;51.046;5.184;2023-01-23T15:43:33;2.90;99.90
15203;DHT22;7702;51.046;5.184;2023-01-23T15:45:59;2.90;99.90
15203;DHT22;7702;51.046;5.184;2023-01-23T15:48:26;2.90;99.90
15203;DHT22;7702;51.046;5.184;2023-01-23T15:50:53;2.90;99.90
15203;DHT22;7702;51.046;5.184;2023-01-23T15:53:19;2.90;99.90
15203;DHT22;7702;51.046;5.184;2023-01-23T15:55:45;2.80;99.90
15203;DHT22;7702;51.046;5.184;2023-01-23T15:58:12;2.80;99.90
15203;DHT22;7702;51.046;5.184;2023-01-23T16:00:39;2.80;99.90
15203;DHT22;7702;51.046;5.184;2023-01-23T16:03:04;2.80;99.90
15203;DHT22;7702;51.046;5.184;2023-01-23T16:05:34;2.80;99.90
15203;DHT22;7702;51.046;5.184;2023-01-23T16:08:01;2.80;99.90
15203;DHT22;7702;51.046;5.184;2023-01-23T16:10:37;2.80;99.90
15203;DHT22;7702;51.046;5.184;2023-01-23T16:13:04;2.80;99.90
15203;DHT22;7702;51.046;5.184;2023-01-23T16:15:32;2.80;99.90
15203;DHT22;7702;51.046;5.184;2023-01-23T16:17:59;2.80;99.90
15203;DHT22;7702;51.046;5.184;2023-01-23T16:20:40;2.80;99.90
15203;DHT22;7702;51.046;5.184;2023-01-23T16:23:19;2.80;99.90
15203;DHT22;7702;51.046;5.184;2023-01-23T16:25:46;2.80;99.90
15203;DHT22;7702;51.046;5.184;2023-01-23T16:28:13;2.80;99.90
15203;DHT22;7702;51.046;5.184;2023-01-23T16:30:39;2.80;99.90
15203;DHT22;7702;51.046;5.184;2023-01-23T16:33:05;2.80;99.90
15203;DHT22;7702;51.046;5.184;2023-01-23T16:35:30;2.80;99.90
15203;DHT22;7702;51.046;5.184;2023-01-23T16:37:58;2.80;99.90
15203;DHT22;7702;51.046;5.184;2023-01-23T16:40:26;2.70;99.90
15203;DHT22;7702;51.046;5.184;2023-01-23T16:42:54;2.80;99.90
15203;DHT22;7702;51.046;5.184;2023-01-23T16:45:30;2.70;99.90
15203;DHT22;7702;51.046;5.184;2023-01-23T16:47:56;2.80;99.90
15203;DHT22;7702;51.046;5.184;2023-01-23T16:50:32;2.80;99.90
15203;DHT22;7702;51.046;5.184;2023-01-23T16:55:33;2.80;99.90
15203;DHT22;7702;51.046;5.184;2023-01-23T16:57:59;2.80;99.90
15203;DHT22;7702;51.046;5.184;2023-01-23T17:00:27;2.80;99.90
15203;DHT22;7702;51.046;5.184;2023-01-23T17:02:55;2.80;99.90
15203;DHT22;7702;51.046;5.184;2023-01-23T17:05:21;2.80;99.90
15203;DHT22;7702;51.046;5.184;2023-01-23T17:07:47;2.80;99.90
15203;DHT22;7702;51.046;5.184;2023-01-23T17:10:14;2.70;99.90
15203;DHT22;7702;51.046;5.184;2023-01-23T17:12:42;2.70;99.90
15203;DHT22;7702;51.046;5.184;2023-01-23T17:15:20;2.80;99.90
15203;DHT22;7702;51.046;5.184;2023-01-23T17:17:48;2.80;99.90
15203;DHT22;7702;51.046;5.184;2023-01-23T17:20:16;2.70;99.90
15203;DHT22;7702;51.046;5.184;2023-01-23T17:22:43;2.80;99.90
15203;DHT22;7702;51.046;5.184;2023-01-23T17:25:17;2.80;99.90
15203;DHT22;7702;51.046;5.184;2023-01-23T17:27:43;2.70;99.90
15203;DHT22;7702;51.046;5.184;2023-01-23T17:30:14;2.80;99.90
15203;DHT22;7702;51.046;5.184;2023-01-23T17:32:42;2.80;99.90
15203;DHT22;7702;51.046;5.184;2023-01-23T17:35:19;2.70;99.90
15203;DHT22;7702;51.046;5.184;2023-01-23T17:37:46;2.70;99.90
15203;DHT22;7702;51.046;5.184;2023-01-23T17:40:15;2.70;99.90
15203;DHT22;7702;51.046;5.184;2023-01-23T17:42:42;2.70;99.90
15203;DHT22;7702;51.046;5.184;2023-01-23T17:45:12;2.60;99.90
15203;DHT22;7702;51.046;5.184;2023-01-23T17:47:41;2.60;99.90
15203;DHT22;7702;51.046;5.184;2023-01-23T17:50:28;2.60;99.90
15203;DHT22;7702;51.046;5.184;2023-01-23T17:52:53;2.60;99.90
15203;DHT22;7702;51.046;5.184;2023-01-23T17:55:22;2.70;99.90
15203;DHT22;7702;51.046;5.184;2023-01-23T17:57:48;2.70;99.90
15203;DHT22;7702;51.046;5.184;2023-01-23T18:00:16;2.60;99.90
15203;DHT22;7702;51.046;5.184;2023-01-23T18:02:44;2.60;99.90
15203;DHT22;7702;51.046;5.184;2023-01-23T18:05:11;2.60;99.90
15203;DHT22;7702;51.046;5.184;2023-01-23T18:07:38;2.60;99.90
15203;DHT22;7702;51.046;5.184;2023-01-23T18:10:05;2.60;99.90
15203;DHT22;7702;51.046;5.184;2023-01-23T18:15:19;2.60;99.90
15203;DHT22;7702;51.046;5.184;2023-01-23T18:20:28;2.70;99.90
15203;DHT22;7702;51.046;5.184;2023-01-23T18:22:55;2.70;99.90
15203;DHT22;7702;51.046;5.184;2023-01-23T18:25:22;2.60;99.90
15203;DHT22;7702;51.046;5.184;2023-01-23T18:27:53;2.60;99.90
15203;DHT22;7702;51.046;5.184;2023-01-23T18:36:13;2.70;99.90